sensor_id;sensor_type;location;lat;lon;timestamp;temperature;humidity
22940;DHT22;11636;52.086;5.090;2024-01-15T00:00:17;1.30;99.90
22940;DHT22;11636;52.086;5.090;2024-01-15T00:02:51;1.20;99.90
22940;DHT22;11636;52.086;5.090;2024-01-15T00:05:18;1.20;99.90
22940;DHT22;11636;52.086;5.090;2024-01-15T00:07:51;1.10;99.90
22940;DHT22;11636;52.086;5.090;2024-01-15T00:10:18;1.20;99.90
22940;DHT22;11636;52.086;5.090;2024-01-15T00:12:51;1.20;99.90
22940;DHT22;11636;52.086;5.090;2024-01-15T00:15:18;1.20;99.90
22940;DHT22;11636;52.086;5.090;2024-01-15T00:17:51;1.20;99.90
22940;DHT22;11636;52.086;5.090;2024-01-15T00:20:18;1.20;99.90
22940;DHT22;11636;52.086;5.090;2024-01-15T00:22:45;1.20;99.90
22940;DHT22;11636;52.086;5.090;2024-01-15T00:25:18;1.20;99.90
22940;DHT22;11636;52.086;5.090;2024-01-15T00:27:45;1.20;99.90
22940;DHT22;11636;52.086;5.090;2024-01-15T00:30:18;1.20;99.90
22940;DHT22;11636;52.086;5.090;2024-01-15T00:32:45;1.30;99.90
22940;DHT22;11636;52.086;5.090;2024-01-15T00:35:19;1.30;99.90
22940;DHT22;11636;52.086;5.090;2024-01-15T00:37:46;1.30;99.90
22940;DHT22;11636;52.086;5.090;2024-01-15T00:40:19;1.30;99.90
22940;DHT22;11636;52.086;5.090;2024-01-15T00:42:46;1.30;99.90
22940;DHT22;11636;52.086;5.090;2024-01-15T00:45:19;1.30;99.90
22940;DHT22;11636;52.086;5.090;2024-01-15T00:47:46;1.40;99.90
22940;DHT22;11636;52.086;5.090;2024-01-15T00:50:19;1.40;99.90
22940;DHT22;11636;52.086;5.090;2024-01-15T00:52:46;1.40;99.90
22940;DHT22;11636;52.086;5.090;2024-01-15T00:55:12;1.50;99.90
22940;DHT22;11636;52.086;5.090;2024-01-15T00:57:46;1.60;99.90
22940;DHT22;11636;52.086;5.090;2024-01-15T01:00:13;1.60;99.90
22940;DHT22;11636;52.086;5.090;2024-01-15T01:02:47;1.70;99.90
22940;DHT22;11636;52.086;5.090;2024-01-15T01:05:14;1.60;99.90
22940;DHT22;11636;52.086;5.090;2024-01-15T01:07:47;1.70;99.90
22940;DHT22;11636;52.086;5.090;2024-01-15T01:10:20;1.70;99.90
22940;DHT22;11636;52.086;5.090;2024-01-15T01:12:47;1.70;99.90
22940;DHT22;11636;52.086;5.090;2024-01-15T01:15:20;1.70;99.90
22940;DHT22;11636;52.086;5.090;2024-01-15T01:17:54;1.80;99.90
22940;DHT22;11636;52.086;5.090;2024-01-15T01:20:27;1.80;99.90
22940;DHT22;11636;52.086;5.090;2024-01-15T01:22:54;1.80;99.90
22940;DHT22;11636;52.086;5.090;2024-01-15T01:25:27;1.80;99.90
22940;DHT22;11636;52.086;5.090;2024-01-15T01:28:00;1.80;99.90
22940;DHT22;11636;52.086;5.090;2024-01-15T01:30:27;1.80;99.90
22940;DHT22;11636;52.086;5.090;2024-01-15T01:33:00;1.80;99.90
22940;DHT22;11636;52.086;5.090;2024-01-15T01:35:27;1.80;99.90
22940;DHT22;11636;52.086;5.090;2024-01-15T01:37:54;1.80;99.90
22940;DHT22;11636;52.086;5.090;2024-01-15T01:40:27;1.70;99.90
22940;DHT22;11636;52.086;5.090;2024-01-15T01:43:00;1.70;99.90
22940;DHT22;11636;52.086;5.090;2024-01-15T01:45:35;1.80;99.90
22940;DHT22;11636;52.086;5.090;2024-01-15T01:48:08;1.80;99.90
22940;DHT22;11636;52.086;5.090;2024-01-15T01:50:35;1.90;99.90
22940;DHT22;11636;52.086;5.090;2024-01-15T01:53:09;1.90;99.90
22940;DHT22;11636;52.086;5.090;2024-01-15T01:55:38;1.90;99.90
22940;DHT22;11636;52.086;5.090;2024-01-15T01:58:05;1.90;99.90
22940;DHT22;11636;52.086;5.090;2024-01-15T02:00:39;1.80;99.90
22940;DHT22;11636;52.086;5.090;2024-01-15T02:03:06;1.80;99.90
22940;DHT22;11636;52.086;5.090;2024-01-15T02:05:35;1.80;99.90
22940;DHT22;11636;52.086;5.090;2024-01-15T02:08:09;1.80;99.90
22940;DHT22;11636;52.086;5.090;2024-01-15T02:10:36;1.70;99.90
22940;DHT22;11636;52.086;5.090;2024-01-15T02:13:09;1.70;99.90
22940;DHT22;11636;52.086;5.090;2024-01-15T02:15:36;1.70;99.90
22940;DHT22;11636;52.086;5.090;2024-01-15T02:18:09;1.60;99.90
22940;DHT22;11636;52.086;5.090;2024-01-15T02:20:36;1.60;99.90
22940;DHT22;11636;52.086;5.090;2024-01-15T02:23:10;1.60;99.90
22940;DHT22;11636;52.086;5.090;2024-01-15T02:25:46;1.70;99.90
22940;DHT22;11636;52.086;5.090;2024-01-15T02:28:17;1.70;99.90
22940;DHT22;11636;52.086;5.090;2024-01-15T02:30:44;1.60;99.90
22940;DHT22;11636;52.086;5.090;2024-01-15T02:33:17;1.50;99.90
22940;DHT22;11636;52.086;5.090;2024-01-15T02:35:50;1.60;99.90
22940;DHT22;11636;52.086;5.090;2024-01-15T02:38:17;1.70;99.90
22940;DHT22;11636;52.086;5.090;2024-01-15T02:40:45;1.70;99.90
22940;DHT22;11636;52.086;5.090;2024-01-15T02:43:18;1.80;99.90
22940;DHT22;11636;52.086;5.090;2024-01-15T02:45:46;1.90;99.90
22940;DHT22;11636;52.086;5.090;2024-01-15T02:48:22;2.00;99.90
22940;DHT22;11636;52.086;5.090;2024-01-15T02:50:49;2.00;99.90
22940;DHT22;11636;52.086;5.090;2024-01-15T02:53:16;1.90;99.90
22940;DHT22;11636;52.086;5.090;2024-01-15T02:55:49;1.90;99.90
22940;DHT22;11636;52.086;5.090;2024-01-15T02:58:16;1.90;99.90
22940;DHT22;11636;52.086;5.090;2024-01-15T03:00:49;1.80;99.90
22940;DHT22;11636;52.086;5.090;2024-01-15T03:03:16;1.70;99.90
22940;DHT22;11636;52.086;5.090;2024-01-15T03:05:49;1.60;99.90
22940;DHT22;11636;52.086;5.090;2024-01-15T03:08:16;1.50;99.90
22940;DHT22;11636;52.086;5.090;2024-01-15T03:10:50;1.40;99.90
22940;DHT22;11636;52.086;5.090;2024-01-15T03:13:17;1.40;99.90
22940;DHT22;11636;52.086;5.090;2024-01-15T03:15:46;1.30;99.90
22940;DHT22;11636;52.086;5.090;2024-01-15T03:18:19;1.30;99.90
22940;DHT22;11636;52.086;5.090;2024-01-15T03:20:46;1.30;99.90
22940;DHT22;11636;52.086;5.090;2024-01-15T03:23:19;1.40;99.90
22940;DHT22;11636;52.086;5.090;2024-01-15T03:25:46;1.50;99.90
22940;DHT22;11636;52.086;5.090;2024-01-15T03:28:19;1.60;99.90
22940;DHT22;11636;52.086;5.090;2024-01-15T03:30:46;1.70;99.90
22940;DHT22;11636;52.086;5.090;2024-01-15T03:33:19;1.70;99.90
22940;DHT22;11636;52.086;5.090;2024-01-15T03:35:47;1.70;99.90
22940;DHT22;11636;52.086;5.090;2024-01-15T03:38:13;1.70;99.90
22940;DHT22;11636;52.086;5.090;2024-01-15T03:40:46;1.70;99.90
22940;DHT22;11636;52.086;5.090;2024-01-15T03:43:19;1.70;99.90
22940;DHT22;11636;52.086;5.090;2024-01-15T03:45:46;1.60;99.90
22940;DHT22;11636;52.086;5.090;2024-01-15T03:48:13;1.50;99.90
22940;DHT22;11636;52.086;5.090;2024-01-15T03:50:47;1.50;99.90
22940;DHT22;11636;52.086;5.090;2024-01-15T03:53:13;1.50;99.90
22940;DHT22;11636;52.086;5.090;2024-01-15T03:55:47;1.50;99.90
22940;DHT22;11636;52.086;5.090;2024-01-15T03:58:14;1.50;99.90
22940;DHT22;11636;52.086;5.090;2024-01-15T04:00:48;1.50;99.90
22940;DHT22;11636;52.086;5.090;2024-01-15T04:03:15;1.40;99.90
22940;DHT22;11636;52.086;5.090;2024-01-15T04:05:49;1.40;99.90
22940;DHT22;11636;52.086;5.090;2024-01-15T04:08:16;1.40;99.90
22940;DHT22;11636;52.086;5.090;2024-01-15T04:10:49;1.40;99.90
22940;DHT22;11636;52.086;5.090;2024-01-15T04:13:16;1.40;99.90
22940;DHT22;11636;52.086;5.090;2024-01-15T04:15:43;1.40;99.90
22940;DHT22;11636;52.086;5.090;2024-01-15T04:18:16;1.30;99.90
22940;DHT22;11636;52.086;5.090;2024-01-15T04:20:44;1.30;99.90
22940;DHT22;11636;52.086;5.090;2024-01-15T04:23:11;1.30;99.90
22940;DHT22;11636;52.086;5.090;2024-01-15T04:25:44;1.40;99.90
22940;DHT22;11636;52.086;5.090;2024-01-15T04:28:18;1.40;99.90
22940;DHT22;11636;52.086;5.090;2024-01-15T04:30:45;1.40;99.90
22940;DHT22;11636;52.086;5.090;2024-01-15T04:33:19;1.40;99.90
22940;DHT22;11636;52.086;5.090;2024-01-15T04:35:46;1.40;99.90
22940;DHT22;11636;52.086;5.090;2024-01-15T04:38:26;1.40;99.90
22940;DHT22;11636;52.086;5.090;2024-01-15T04:40:53;1.40;99.90
22940;DHT22;11636;52.086;5.090;2024-01-15T04:43:26;1.40;99.90
22940;DHT22;11636;52.086;5.090;2024-01-15T04:45:59;1.40;99.90
22940;DHT22;11636;52.086;5.090;2024-01-15T04:48:27;1.50;99.90
22940;DHT22;11636;52.086;5.090;2024-01-15T04:51:00;1.60;99.90
22940;DHT22;11636;52.086;5.090;2024-01-15T04:53:30;1.60;99.90
22940;DHT22;11636;52.086;5.090;2024-01-15T04:56:04;1.70;99.90
22940;DHT22;11636;52.086;5.090;2024-01-15T04:58:30;1.80;99.90
22940;DHT22;11636;52.086;5.090;2024-01-15T05:01:03;1.80;99.90
22940;DHT22;11636;52.086;5.090;2024-01-15T05:03:30;1.80;99.90
22940;DHT22;11636;52.086;5.090;2024-01-15T05:05:58;1.80;99.90
22940;DHT22;11636;52.086;5.090;2024-01-15T05:08:31;1.70;99.90
22940;DHT22;11636;52.086;5.090;2024-01-15T05:11:11;1.60;99.90
22940;DHT22;11636;52.086;5.090;2024-01-15T05:13:44;1.60;99.90
22940;DHT22;11636;52.086;5.090;2024-01-15T05:16:11;1.60;99.90
22940;DHT22;11636;52.086;5.090;2024-01-15T05:18:44;1.50;99.90
22940;DHT22;11636;52.086;5.090;2024-01-15T05:21:11;1.50;99.90
22940;DHT22;11636;52.086;5.090;2024-01-15T05:23:38;1.40;99.90
22940;DHT22;11636;52.086;5.090;2024-01-15T05:26:11;1.30;99.90
22940;DHT22;11636;52.086;5.090;2024-01-15T05:28:44;1.30;99.90
22940;DHT22;11636;52.086;5.090;2024-01-15T05:31:17;1.20;99.90
22940;DHT22;11636;52.086;5.090;2024-01-15T05:33:44;1.10;99.90
22940;DHT22;11636;52.086;5.090;2024-01-15T05:36:17;1.00;99.90
22940;DHT22;11636;52.086;5.090;2024-01-15T05:38:44;1.00;99.90
22940;DHT22;11636;52.086;5.090;2024-01-15T05:41:18;1.10;99.90
22940;DHT22;11636;52.086;5.090;2024-01-15T05:43:44;1.10;99.90
22940;DHT22;11636;52.086;5.090;2024-01-15T05:46:17;1.20;99.90
22940;DHT22;11636;52.086;5.090;2024-01-15T05:48:44;1.20;99.90
22940;DHT22;11636;52.086;5.090;2024-01-15T05:51:18;1.30;99.90
22940;DHT22;11636;52.086;5.090;2024-01-15T05:53:45;1.30;99.90
22940;DHT22;11636;52.086;5.090;2024-01-15T05:56:14;1.40;99.90
22940;DHT22;11636;52.086;5.090;2024-01-15T05:58:46;1.40;99.90
22940;DHT22;11636;52.086;5.090;2024-01-15T06:01:13;1.40;99.90
22940;DHT22;11636;52.086;5.090;2024-01-15T06:03:47;1.40;99.90
22940;DHT22;11636;52.086;5.090;2024-01-15T06:06:13;1.50;99.90
22940;DHT22;11636;52.086;5.090;2024-01-15T06:08:40;1.50;99.90
22940;DHT22;11636;52.086;5.090;2024-01-15T06:11:13;1.50;99.90
22940;DHT22;11636;52.086;5.090;2024-01-15T06:13:46;1.50;99.90
22940;DHT22;11636;52.086;5.090;2024-01-15T06:16:16;1.50;99.90
22940;DHT22;11636;52.086;5.090;2024-01-15T06:18:46;1.50;99.90
22940;DHT22;11636;52.086;5.090;2024-01-15T06:21:19;1.40;99.90
22940;DHT22;11636;52.086;5.090;2024-01-15T06:23:46;1.40;99.90
22940;DHT22;11636;52.086;5.090;2024-01-15T06:26:18;1.40;99.90
22940;DHT22;11636;52.086;5.090;2024-01-15T06:28:45;1.40;99.90
22940;DHT22;11636;52.086;5.090;2024-01-15T06:31:12;1.40;99.90
22940;DHT22;11636;52.086;5.090;2024-01-15T06:33:46;1.40;99.90
22940;DHT22;11636;52.086;5.090;2024-01-15T06:36:21;1.50;99.90
22940;DHT22;11636;52.086;5.090;2024-01-15T06:38:48;1.50;99.90
22940;DHT22;11636;52.086;5.090;2024-01-15T06:41:21;1.40;99.90
22940;DHT22;11636;52.086;5.090;2024-01-15T06:43:54;1.40;99.90
22940;DHT22;11636;52.086;5.090;2024-01-15T06:46:23;1.30;99.90
22940;DHT22;11636;52.086;5.090;2024-01-15T06:48:56;1.30;99.90
22940;DHT22;11636;52.086;5.090;2024-01-15T06:51:30;1.20;99.90
22940;DHT22;11636;52.086;5.090;2024-01-15T06:54:04;1.10;99.90
22940;DHT22;11636;52.086;5.090;2024-01-15T06:56:31;1.10;99.90
22940;DHT22;11636;52.086;5.090;2024-01-15T06:59:04;1.10;99.90
22940;DHT22;11636;52.086;5.090;2024-01-15T07:01:31;1.10;99.90
22940;DHT22;11636;52.086;5.090;2024-01-15T07:04:04;1.20;99.90
22940;DHT22;11636;52.086;5.090;2024-01-15T07:06:38;1.30;99.90
22940;DHT22;11636;52.086;5.090;2024-01-15T07:09:11;1.30;99.90
22940;DHT22;11636;52.086;5.090;2024-01-15T07:11:38;1.30;99.90
22940;DHT22;11636;52.086;5.090;2024-01-15T07:14:12;1.20;99.90
22940;DHT22;11636;52.086;5.090;2024-01-15T07:16:39;1.20;99.90
22940;DHT22;11636;52.086;5.090;2024-01-15T07:19:14;1.20;99.90
22940;DHT22;11636;52.086;5.090;2024-01-15T07:21:42;1.20;99.90
22940;DHT22;11636;52.086;5.090;2024-01-15T07:24:09;1.20;99.90
22940;DHT22;11636;52.086;5.090;2024-01-15T07:26:44;1.30;99.90
22940;DHT22;11636;52.086;5.090;2024-01-15T07:29:11;1.30;99.90
22940;DHT22;11636;52.086;5.090;2024-01-15T07:31:51;1.20;99.90
22940;DHT22;11636;52.086;5.090;2024-01-15T07:34:18;1.20;99.90
22940;DHT22;11636;52.086;5.090;2024-01-15T07:36:52;1.20;99.90
22940;DHT22;11636;52.086;5.090;2024-01-15T07:39:19;1.10;99.90
22940;DHT22;11636;52.086;5.090;2024-01-15T07:41:46;1.10;99.90
22940;DHT22;11636;52.086;5.090;2024-01-15T07:44:20;1.10;99.90
22940;DHT22;11636;52.086;5.090;2024-01-15T07:46:47;1.20;99.90
22940;DHT22;11636;52.086;5.090;2024-01-15T07:49:20;1.20;99.90
22940;DHT22;11636;52.086;5.090;2024-01-15T07:51:47;1.20;99.90
22940;DHT22;11636;52.086;5.090;2024-01-15T07:54:20;1.20;99.90
22940;DHT22;11636;52.086;5.090;2024-01-15T07:56:56;1.10;99.90
22940;DHT22;11636;52.086;5.090;2024-01-15T07:59:31;1.10;99.90
22940;DHT22;11636;52.086;5.090;2024-01-15T08:01:59;1.10;99.90
22940;DHT22;11636;52.086;5.090;2024-01-15T08:04:33;1.00;99.90
22940;DHT22;11636;52.086;5.090;2024-01-15T08:07:06;1.10;99.90
22940;DHT22;11636;52.086;5.090;2024-01-15T08:09:35;1.10;99.90
22940;DHT22;11636;52.086;5.090;2024-01-15T08:12:09;1.10;99.90
22940;DHT22;11636;52.086;5.090;2024-01-15T08:14:36;1.00;99.90
22940;DHT22;11636;52.086;5.090;2024-01-15T08:17:10;1.00;99.90
22940;DHT22;11636;52.086;5.090;2024-01-15T08:19:43;1.00;99.90
22940;DHT22;11636;52.086;5.090;2024-01-15T08:22:17;1.00;99.90
22940;DHT22;11636;52.086;5.090;2024-01-15T08:24:50;1.00;99.90
22940;DHT22;11636;52.086;5.090;2024-01-15T08:27:24;1.00;99.90
22940;DHT22;11636;52.086;5.090;2024-01-15T08:29:50;1.10;99.90
22940;DHT22;11636;52.086;5.090;2024-01-15T08:32:24;1.10;99.90
22940;DHT22;11636;52.086;5.090;2024-01-15T08:34:50;1.10;99.90
22940;DHT22;11636;52.086;5.090;2024-01-15T08:37:25;1.10;99.90
22940;DHT22;11636;52.086;5.090;2024-01-15T08:39:52;1.00;99.90
22940;DHT22;11636;52.086;5.090;2024-01-15T08:42:25;0.90;99.90
22940;DHT22;11636;52.086;5.090;2024-01-15T08:44:52;0.90;99.90
22940;DHT22;11636;52.086;5.090;2024-01-15T08:47:18;0.90;99.90
22940;DHT22;11636;52.086;5.090;2024-01-15T08:49:52;0.80;99.90
22940;DHT22;11636;52.086;5.090;2024-01-15T08:52:19;0.80;99.90
22940;DHT22;11636;52.086;5.090;2024-01-15T08:54:53;0.90;99.90
22940;DHT22;11636;52.086;5.090;2024-01-15T08:57:19;0.90;99.90
22940;DHT22;11636;52.086;5.090;2024-01-15T08:59:53;1.00;99.90
22940;DHT22;11636;52.086;5.090;2024-01-15T09:02:21;1.20;99.90
22940;DHT22;11636;52.086;5.090;2024-01-15T09:04:55;1.20;99.90
22940;DHT22;11636;52.086;5.090;2024-01-15T09:07:21;1.20;99.90
22940;DHT22;11636;52.086;5.090;2024-01-15T09:09:48;1.20;99.90
22940;DHT22;11636;52.086;5.090;2024-01-15T09:12:22;1.20;99.90
22940;DHT22;11636;52.086;5.090;2024-01-15T09:14:49;1.10;99.90
22940;DHT22;11636;52.086;5.090;2024-01-15T09:17:24;1.20;99.90
22940;DHT22;11636;52.086;5.090;2024-01-15T09:19:51;1.30;99.90
22940;DHT22;11636;52.086;5.090;2024-01-15T09:22:24;1.40;99.90
22940;DHT22;11636;52.086;5.090;2024-01-15T09:24:51;1.40;99.90
22940;DHT22;11636;52.086;5.090;2024-01-15T09:27:24;1.40;99.90
22940;DHT22;11636;52.086;5.090;2024-01-15T09:29:53;1.40;99.90
22940;DHT22;11636;52.086;5.090;2024-01-15T09:32:19;1.40;99.90
22940;DHT22;11636;52.086;5.090;2024-01-15T09:34:53;1.40;99.90
22940;DHT22;11636;52.086;5.090;2024-01-15T09:37:20;1.40;99.90
22940;DHT22;11636;52.086;5.090;2024-01-15T09:40:13;1.50;99.90
22940;DHT22;11636;52.086;5.090;2024-01-15T09:42:50;1.50;99.90
22940;DHT22;11636;52.086;5.090;2024-01-15T09:45:18;1.50;99.90
22940;DHT22;11636;52.086;5.090;2024-01-15T09:47:52;1.40;99.90
22940;DHT22;11636;52.086;5.090;2024-01-15T09:50:27;1.40;99.90
22940;DHT22;11636;52.086;5.090;2024-01-15T09:52:54;1.30;99.90
22940;DHT22;11636;52.086;5.090;2024-01-15T09:55:30;1.30;99.90
22940;DHT22;11636;52.086;5.090;2024-01-15T09:57:58;1.30;99.90
22940;DHT22;11636;52.086;5.090;2024-01-15T10:00:34;1.40;99.90
22940;DHT22;11636;52.086;5.090;2024-01-15T10:03:04;1.50;99.90
22940;DHT22;11636;52.086;5.090;2024-01-15T10:05:38;1.60;99.90
22940;DHT22;11636;52.086;5.090;2024-01-15T10:08:05;1.70;99.90
22940;DHT22;11636;52.086;5.090;2024-01-15T10:10:41;1.70;99.90
22940;DHT22;11636;52.086;5.090;2024-01-15T10:13:07;2.00;99.90
22940;DHT22;11636;52.086;5.090;2024-01-15T10:15:41;2.10;99.90
22940;DHT22;11636;52.086;5.090;2024-01-15T10:18:09;2.20;99.90
22940;DHT22;11636;52.086;5.090;2024-01-15T10:20:43;2.30;99.90
22940;DHT22;11636;52.086;5.090;2024-01-15T10:23:19;2.50;99.90
22940;DHT22;11636;52.086;5.090;2024-01-15T10:25:46;2.80;99.90
22940;DHT22;11636;52.086;5.090;2024-01-15T10:28:20;3.00;99.90
22940;DHT22;11636;52.086;5.090;2024-01-15T10:30:47;3.00;99.90
22940;DHT22;11636;52.086;5.090;2024-01-15T10:33:25;2.90;99.90
22940;DHT22;11636;52.086;5.090;2024-01-15T10:36:00;2.70;99.90
22940;DHT22;11636;52.086;5.090;2024-01-15T10:38:34;2.60;99.90
22940;DHT22;11636;52.086;5.090;2024-01-15T10:41:01;2.60;99.90
22940;DHT22;11636;52.086;5.090;2024-01-15T10:43:28;2.50;99.90
22940;DHT22;11636;52.086;5.090;2024-01-15T10:46:01;2.50;99.90
22940;DHT22;11636;52.086;5.090;2024-01-15T10:48:29;2.70;99.90
22940;DHT22;11636;52.086;5.090;2024-01-15T10:51:04;2.80;99.90
22940;DHT22;11636;52.086;5.090;2024-01-15T10:53:39;3.00;99.90
22940;DHT22;11636;52.086;5.090;2024-01-15T10:56:13;3.00;99.90
22940;DHT22;11636;52.086;5.090;2024-01-15T10:58:41;2.90;99.90
22940;DHT22;11636;52.086;5.090;2024-01-15T11:01:16;2.80;99.90
22940;DHT22;11636;52.086;5.090;2024-01-15T11:03:44;2.70;99.90
22940;DHT22;11636;52.086;5.090;2024-01-15T11:06:25;2.70;99.90
22940;DHT22;11636;52.086;5.090;2024-01-15T11:09:00;2.60;99.90
22940;DHT22;11636;52.086;5.090;2024-01-15T11:11:40;2.50;99.90
22940;DHT22;11636;52.086;5.090;2024-01-15T11:14:08;2.30;99.90
22940;DHT22;11636;52.086;5.090;2024-01-15T11:16:54;2.20;99.90
22940;DHT22;11636;52.086;5.090;2024-01-15T11:22:10;2.30;99.90
22940;DHT22;11636;52.086;5.090;2024-01-15T11:24:45;2.40;99.90
22940;DHT22;11636;52.086;5.090;2024-01-15T11:27:44;2.60;99.90
22940;DHT22;11636;52.086;5.090;2024-01-15T11:30:14;2.60;99.90
22940;DHT22;11636;52.086;5.090;2024-01-15T11:32:48;2.40;99.90
22940;DHT22;11636;52.086;5.090;2024-01-15T11:35:21;2.30;99.90
22940;DHT22;11636;52.086;5.090;2024-01-15T11:43:12;2.20;99.90
22940;DHT22;11636;52.086;5.090;2024-01-15T11:45:40;2.10;99.90
22940;DHT22;11636;52.086;5.090;2024-01-15T11:48:17;2.00;99.90
22940;DHT22;11636;52.086;5.090;2024-01-15T11:50:51;2.00;99.90
22940;DHT22;11636;52.086;5.090;2024-01-15T11:53:36;2.00;99.90
22940;DHT22;11636;52.086;5.090;2024-01-15T11:56:09;1.90;99.90
22940;DHT22;11636;52.086;5.090;2024-01-15T11:58:44;1.90;99.90
22940;DHT22;11636;52.086;5.090;2024-01-15T12:01:11;1.90;99.90
22940;DHT22;11636;52.086;5.090;2024-01-15T12:03:47;2.00;99.90
22940;DHT22;11636;52.086;5.090;2024-01-15T12:06:14;2.00;99.90
22940;DHT22;11636;52.086;5.090;2024-01-15T12:08:41;2.00;99.90
22940;DHT22;11636;52.086;5.090;2024-01-15T12:11:16;2.00;99.90
22940;DHT22;11636;52.086;5.090;2024-01-15T12:13:45;2.00;99.90
22940;DHT22;11636;52.086;5.090;2024-01-15T12:16:19;2.10;99.90
22940;DHT22;11636;52.086;5.090;2024-01-15T12:18:46;2.20;99.90
22940;DHT22;11636;52.086;5.090;2024-01-15T12:21:19;2.30;99.90
22940;DHT22;11636;52.086;5.090;2024-01-15T12:23:52;2.40;99.90
22940;DHT22;11636;52.086;5.090;2024-01-15T12:26:21;2.40;99.90
22940;DHT22;11636;52.086;5.090;2024-01-15T12:28:54;2.50;99.90
22940;DHT22;11636;52.086;5.090;2024-01-15T12:31:23;2.50;99.90
22940;DHT22;11636;52.086;5.090;2024-01-15T12:33:50;2.50;99.90
22940;DHT22;11636;52.086;5.090;2024-01-15T12:36:23;2.60;99.90
22940;DHT22;11636;52.086;5.090;2024-01-15T12:38:59;2.80;99.90
22940;DHT22;11636;52.086;5.090;2024-01-15T12:41:26;3.10;99.90
22940;DHT22;11636;52.086;5.090;2024-01-15T12:43:59;3.20;99.90
22940;DHT22;11636;52.086;5.090;2024-01-15T12:46:26;3.20;99.90
22940;DHT22;11636;52.086;5.090;2024-01-15T12:48:59;3.30;99.90
22940;DHT22;11636;52.086;5.090;2024-01-15T12:51:26;3.60;99.90
22940;DHT22;11636;52.086;5.090;2024-01-15T12:53:53;3.60;99.90
22940;DHT22;11636;52.086;5.090;2024-01-15T12:56:27;3.40;99.90
22940;DHT22;11636;52.086;5.090;2024-01-15T12:58:54;3.00;99.90
22940;DHT22;11636;52.086;5.090;2024-01-15T13:01:27;2.40;99.90
22940;DHT22;11636;52.086;5.090;2024-01-15T13:03:54;2.10;99.90
22940;DHT22;11636;52.086;5.090;2024-01-15T13:06:27;1.90;99.90
22940;DHT22;11636;52.086;5.090;2024-01-15T13:08:54;1.90;99.90
22940;DHT22;11636;52.086;5.090;2024-01-15T13:11:27;1.90;99.90
22940;DHT22;11636;52.086;5.090;2024-01-15T13:13:54;1.90;99.90
22940;DHT22;11636;52.086;5.090;2024-01-15T13:16:21;2.00;99.90
22940;DHT22;11636;52.086;5.090;2024-01-15T13:18:55;2.00;99.90
22940;DHT22;11636;52.086;5.090;2024-01-15T13:21:32;2.10;99.90
22940;DHT22;11636;52.086;5.090;2024-01-15T13:24:05;2.30;99.90
22940;DHT22;11636;52.086;5.090;2024-01-15T13:26:36;2.40;99.90
22940;DHT22;11636;52.086;5.090;2024-01-15T13:29:09;2.60;99.90
22940;DHT22;11636;52.086;5.090;2024-01-15T13:31:36;2.60;99.90
22940;DHT22;11636;52.086;5.090;2024-01-15T13:34:03;2.60;99.90
22940;DHT22;11636;52.086;5.090;2024-01-15T13:36:36;2.60;99.90
22940;DHT22;11636;52.086;5.090;2024-01-15T13:39:05;2.50;99.90
22940;DHT22;11636;52.086;5.090;2024-01-15T13:41:44;2.50;99.90
22940;DHT22;11636;52.086;5.090;2024-01-15T13:44:11;2.50;99.90
22940;DHT22;11636;52.086;5.090;2024-01-15T13:46:44;2.50;99.90
22940;DHT22;11636;52.086;5.090;2024-01-15T13:49:11;2.50;99.90
22940;DHT22;11636;52.086;5.090;2024-01-15T13:51:45;2.40;99.90
22940;DHT22;11636;52.086;5.090;2024-01-15T13:54:11;2.10;99.90
22940;DHT22;11636;52.086;5.090;2024-01-15T13:56:45;2.00;99.90
22940;DHT22;11636;52.086;5.090;2024-01-15T13:59:13;1.90;99.90
22940;DHT22;11636;52.086;5.090;2024-01-15T14:01:47;1.90;99.90
22940;DHT22;11636;52.086;5.090;2024-01-15T14:04:20;1.90;99.90
22940;DHT22;11636;52.086;5.090;2024-01-15T14:06:47;2.00;99.90
22940;DHT22;11636;52.086;5.090;2024-01-15T14:09:20;2.00;99.90
22940;DHT22;11636;52.086;5.090;2024-01-15T14:11:54;2.10;99.90
22940;DHT22;11636;52.086;5.090;2024-01-15T14:14:21;2.10;99.90
22940;DHT22;11636;52.086;5.090;2024-01-15T14:16:54;2.10;99.90
22940;DHT22;11636;52.086;5.090;2024-01-15T14:19:21;2.10;99.90
22940;DHT22;11636;52.086;5.090;2024-01-15T14:21:55;2.10;99.90
22940;DHT22;11636;52.086;5.090;2024-01-15T14:24:22;2.20;99.90
22940;DHT22;11636;52.086;5.090;2024-01-15T14:26:49;2.40;99.90
22940;DHT22;11636;52.086;5.090;2024-01-15T14:29:22;2.50;99.90
22940;DHT22;11636;52.086;5.090;2024-01-15T14:31:52;2.40;99.90
22940;DHT22;11636;52.086;5.090;2024-01-15T14:34:19;2.40;99.90
22940;DHT22;11636;52.086;5.090;2024-01-15T14:36:56;2.30;99.90
22940;DHT22;11636;52.086;5.090;2024-01-15T14:39:30;2.40;99.90
22940;DHT22;11636;52.086;5.090;2024-01-15T14:42:00;2.50;99.90
22940;DHT22;11636;52.086;5.090;2024-01-15T14:44:27;2.60;99.90
22940;DHT22;11636;52.086;5.090;2024-01-15T14:47:03;2.60;99.90
22940;DHT22;11636;52.086;5.090;2024-01-15T14:49:30;2.60;99.90
22940;DHT22;11636;52.086;5.090;2024-01-15T14:52:05;2.70;99.90
22940;DHT22;11636;52.086;5.090;2024-01-15T14:54:32;2.70;99.90
22940;DHT22;11636;52.086;5.090;2024-01-15T14:57:06;2.70;99.90
22940;DHT22;11636;52.086;5.090;2024-01-15T14:59:33;2.60;99.90
22940;DHT22;11636;52.086;5.090;2024-01-15T15:02:00;2.60;99.90
22940;DHT22;11636;52.086;5.090;2024-01-15T15:04:35;2.60;99.90
22940;DHT22;11636;52.086;5.090;2024-01-15T15:07:12;2.60;99.90
22940;DHT22;11636;52.086;5.090;2024-01-15T15:09:39;2.70;99.90
22940;DHT22;11636;52.086;5.090;2024-01-15T15:12:13;2.60;99.90
22940;DHT22;11636;52.086;5.090;2024-01-15T15:14:41;2.60;99.90
22940;DHT22;11636;52.086;5.090;2024-01-15T15:17:31;2.50;99.90
22940;DHT22;11636;52.086;5.090;2024-01-15T15:20:06;2.60;99.90
22940;DHT22;11636;52.086;5.090;2024-01-15T15:22:33;2.60;99.90
22940;DHT22;11636;52.086;5.090;2024-01-15T15:25:07;2.60;99.90
22940;DHT22;11636;52.086;5.090;2024-01-15T15:27:36;2.60;99.90
22940;DHT22;11636;52.086;5.090;2024-01-15T15:30:09;2.60;99.90
22940;DHT22;11636;52.086;5.090;2024-01-15T15:32:37;2.60;99.90
22940;DHT22;11636;52.086;5.090;2024-01-15T15:35:10;2.60;99.90
22940;DHT22;11636;52.086;5.090;2024-01-15T15:37:38;2.50;99.90
22940;DHT22;11636;52.086;5.090;2024-01-15T15:40:05;2.40;99.90
22940;DHT22;11636;52.086;5.090;2024-01-15T15:42:41;2.30;99.90
22940;DHT22;11636;52.086;5.090;2024-01-15T15:45:09;2.30;99.90
22940;DHT22;11636;52.086;5.090;2024-01-15T15:47:39;2.40;99.90
22940;DHT22;11636;52.086;5.090;2024-01-15T15:50:13;2.50;99.90
22940;DHT22;11636;52.086;5.090;2024-01-15T15:52:46;2.30;99.90
22940;DHT22;11636;52.086;5.090;2024-01-15T15:55:19;2.20;99.90
22940;DHT22;11636;52.086;5.090;2024-01-15T15:57:53;2.10;99.90
22940;DHT22;11636;52.086;5.090;2024-01-15T16:00:26;1.90;99.90
22940;DHT22;11636;52.086;5.090;2024-01-15T16:02:59;1.80;99.90
22940;DHT22;11636;52.086;5.090;2024-01-15T16:05:32;1.70;99.90
22940;DHT22;11636;52.086;5.090;2024-01-15T16:08:17;1.70;99.90
22940;DHT22;11636;52.086;5.090;2024-01-15T16:10:46;1.80;99.90
22940;DHT22;11636;52.086;5.090;2024-01-15T16:13:21;1.80;99.90
22940;DHT22;11636;52.086;5.090;2024-01-15T16:15:48;1.80;99.90